sensor_id;sensor_type;location;lat;lon;timestamp;P1;durP1;ratioP1;P2;durP2;ratioP2
22030;SDS011;11179;52.106;21.024;2022-09-09T00:00:22;13.43;;;5.83;;
22030;SDS011;11179;52.106;21.024;2022-09-09T00:08:02;16.53;;;6.07;;
22030;SDS011;11179;52.106;21.024;2022-09-09T00:13:07;14.47;;;4.93;;
22030;SDS011;11179;52.106;21.024;2022-09-09T00:18:29;22.80;;;7.83;;
22030;SDS011;11179;52.106;21.024;2022-09-09T00:21:17;12.20;;;5.30;;
22030;SDS011;11179;52.106;21.024;2022-09-09T00:23:48;12.07;;;5.67;;
22030;SDS011;11179;52.106;21.024;2022-09-09T00:31:18;17.67;;;6.80;;
22030;SDS011;11179;52.106;21.024;2022-09-09T00:33:48;16.30;;;6.20;;
22030;SDS011;11179;52.106;21.024;2022-09-09T00:36:18;18.80;;;7.30;;
22030;SDS011;11179;52.106;21.024;2022-09-09T00:38:55;18.90;;;7.97;;
22030;SDS011;11179;52.106;21.024;2022-09-09T00:41:26;19.63;;;6.90;;
22030;SDS011;11179;52.106;21.024;2022-09-09T00:44:33;15.67;;;7.43;;
22030;SDS011;11179;52.106;21.024;2022-09-09T00:49:59;16.80;;;7.83;;
22030;SDS011;11179;52.106;21.024;2022-09-09T00:55:38;16.63;;;7.57;;
22030;SDS011;11179;52.106;21.024;2022-09-09T00:58:06;15.50;;;7.50;;
22030;SDS011;11179;52.106;21.024;2022-09-09T01:03:22;24.50;;;7.57;;
22030;SDS011;11179;52.106;21.024;2022-09-09T01:11:10;19.23;;;7.77;;
22030;SDS011;11179;52.106;21.024;2022-09-09T01:13:45;18.23;;;9.13;;
22030;SDS011;11179;52.106;21.024;2022-09-09T01:16:12;19.03;;;7.67;;
22030;SDS011;11179;52.106;21.024;2022-09-09T01:18:49;18.30;;;8.10;;
22030;SDS011;11179;52.106;21.024;2022-09-09T01:24:15;20.47;;;8.47;;
22030;SDS011;11179;52.106;21.024;2022-09-09T01:26:56;20.23;;;9.00;;
22030;SDS011;11179;52.106;21.024;2022-09-09T01:29:25;21.33;;;10.20;;
22030;SDS011;11179;52.106;21.024;2022-09-09T01:31:52;15.73;;;9.10;;
22030;SDS011;11179;52.106;21.024;2022-09-09T01:34:20;16.90;;;8.50;;
22030;SDS011;11179;52.106;21.024;2022-09-09T01:37:07;23.10;;;9.53;;
22030;SDS011;11179;52.106;21.024;2022-09-09T01:39:35;25.23;;;8.07;;
22030;SDS011;11179;52.106;21.024;2022-09-09T01:42:01;16.93;;;9.10;;
22030;SDS011;11179;52.106;21.024;2022-09-09T01:44:30;18.50;;;8.47;;
22030;SDS011;11179;52.106;21.024;2022-09-09T01:46:56;18.20;;;9.00;;
22030;SDS011;11179;52.106;21.024;2022-09-09T01:49:21;20.70;;;10.27;;
22030;SDS011;11179;52.106;21.024;2022-09-09T01:51:49;19.40;;;9.30;;
22030;SDS011;11179;52.106;21.024;2022-09-09T01:54:17;15.00;;;7.70;;
22030;SDS011;11179;52.106;21.024;2022-09-09T02:02:16;19.30;;;8.80;;
22030;SDS011;11179;52.106;21.024;2022-09-09T02:04:44;17.53;;;9.20;;
22030;SDS011;11179;52.106;21.024;2022-09-09T02:09:52;24.03;;;10.60;;
22030;SDS011;11179;52.106;21.024;2022-09-09T02:12:33;19.10;;;8.90;;
22030;SDS011;11179;52.106;21.024;2022-09-09T02:15:03;19.60;;;7.90;;
22030;SDS011;11179;52.106;21.024;2022-09-09T02:17:36;20.37;;;9.43;;
22030;SDS011;11179;52.106;21.024;2022-09-09T02:20:09;19.03;;;8.57;;
22030;SDS011;11179;52.106;21.024;2022-09-09T02:22:38;19.00;;;8.97;;
22030;SDS011;11179;52.106;21.024;2022-09-09T02:25:07;21.70;;;10.13;;
22030;SDS011;11179;52.106;21.024;2022-09-09T02:27:35;22.37;;;7.83;;
22030;SDS011;11179;52.106;21.024;2022-09-09T02:30:01;18.37;;;8.63;;
22030;SDS011;11179;52.106;21.024;2022-09-09T02:32:28;16.77;;;8.60;;
22030;SDS011;11179;52.106;21.024;2022-09-09T02:34:57;21.00;;;9.83;;
22030;SDS011;11179;52.106;21.024;2022-09-09T02:37:37;29.23;;;11.20;;
22030;SDS011;11179;52.106;21.024;2022-09-09T02:40:08;21.10;;;9.20;;
22030;SDS011;11179;52.106;21.024;2022-09-09T02:42:43;28.40;;;9.90;;
22030;SDS011;11179;52.106;21.024;2022-09-09T02:45:11;22.33;;;9.37;;
22030;SDS011;11179;52.106;21.024;2022-09-09T02:50:32;20.93;;;9.23;;
22030;SDS011;11179;52.106;21.024;2022-09-09T02:56:13;16.70;;;9.20;;
22030;SDS011;11179;52.106;21.024;2022-09-09T02:58:42;24.13;;;9.43;;
22030;SDS011;11179;52.106;21.024;2022-09-09T03:01:07;18.90;;;9.30;;
22030;SDS011;11179;52.106;21.024;2022-09-09T03:03:33;16.70;;;8.20;;
22030;SDS011;11179;52.106;21.024;2022-09-09T03:05:59;21.38;;;9.90;;
22030;SDS011;11179;52.106;21.024;2022-09-09T03:08:25;28.13;;;11.63;;
22030;SDS011;11179;52.106;21.024;2022-09-09T03:10:51;18.40;;;9.50;;
22030;SDS011;11179;52.106;21.024;2022-09-09T03:13:18;22.13;;;8.33;;
22030;SDS011;11179;52.106;21.024;2022-09-09T03:15:44;15.93;;;8.93;;
22030;SDS011;11179;52.106;21.024;2022-09-09T03:18:10;23.53;;;9.97;;
22030;SDS011;11179;52.106;21.024;2022-09-09T03:20:35;19.87;;;9.77;;
22030;SDS011;11179;52.106;21.024;2022-09-09T03:23:00;18.10;;;9.67;;
22030;SDS011;11179;52.106;21.024;2022-09-09T03:25:27;19.90;;;9.80;;
22030;SDS011;11179;52.106;21.024;2022-09-09T03:27:54;17.97;;;9.60;;
22030;SDS011;11179;52.106;21.024;2022-09-09T03:30:20;17.27;;;8.80;;
22030;SDS011;11179;52.106;21.024;2022-09-09T03:32:49;20.50;;;9.40;;
22030;SDS011;11179;52.106;21.024;2022-09-09T03:35:15;26.90;;;10.70;;
22030;SDS011;11179;52.106;21.024;2022-09-09T03:37:41;17.43;;;8.90;;
22030;SDS011;11179;52.106;21.024;2022-09-09T03:40:07;17.30;;;8.33;;
22030;SDS011;11179;52.106;21.024;2022-09-09T03:42:34;16.80;;;8.70;;
22030;SDS011;11179;52.106;21.024;2022-09-09T03:45:01;15.37;;;8.80;;
22030;SDS011;11179;52.106;21.024;2022-09-09T03:47:30;20.57;;;9.73;;
22030;SDS011;11179;52.106;21.024;2022-09-09T03:49:56;20.83;;;9.20;;
22030;SDS011;11179;52.106;21.024;2022-09-09T03:52:21;19.87;;;9.67;;
22030;SDS011;11179;52.106;21.024;2022-09-09T03:54:50;18.67;;;9.03;;
22030;SDS011;11179;52.106;21.024;2022-09-09T03:57:16;21.23;;;9.20;;
22030;SDS011;11179;52.106;21.024;2022-09-09T03:59:42;15.93;;;8.97;;
22030;SDS011;11179;52.106;21.024;2022-09-09T04:02:08;19.03;;;9.87;;
22030;SDS011;11179;52.106;21.024;2022-09-09T04:04:34;19.20;;;8.57;;
22030;SDS011;11179;52.106;21.024;2022-09-09T04:06:59;18.50;;;8.07;;
22030;SDS011;11179;52.106;21.024;2022-09-09T04:09:24;14.57;;;7.50;;
22030;SDS011;11179;52.106;21.024;2022-09-09T04:11:50;15.70;;;8.30;;
22030;SDS011;11179;52.106;21.024;2022-09-09T04:14:15;17.20;;;8.07;;
22030;SDS011;11179;52.106;21.024;2022-09-09T04:16:41;16.73;;;9.03;;
22030;SDS011;11179;52.106;21.024;2022-09-09T04:19:09;16.47;;;8.17;;
22030;SDS011;11179;52.106;21.024;2022-09-09T04:21:37;14.57;;;8.60;;
22030;SDS011;11179;52.106;21.024;2022-09-09T04:24:04;14.33;;;7.90;;
22030;SDS011;11179;52.106;21.024;2022-09-09T04:26:30;20.87;;;9.97;;
22030;SDS011;11179;52.106;21.024;2022-09-09T04:28:56;15.80;;;7.37;;
22030;SDS011;11179;52.106;21.024;2022-09-09T04:31:22;16.00;;;7.63;;
22030;SDS011;11179;52.106;21.024;2022-09-09T04:33:48;15.10;;;7.90;;
22030;SDS011;11179;52.106;21.024;2022-09-09T04:36:17;14.57;;;8.03;;
22030;SDS011;11179;52.106;21.024;2022-09-09T04:38:44;19.63;;;9.17;;
22030;SDS011;11179;52.106;21.024;2022-09-09T04:41:10;16.13;;;7.37;;
22030;SDS011;11179;52.106;21.024;2022-09-09T04:43:37;18.23;;;7.90;;
22030;SDS011;11179;52.106;21.024;2022-09-09T04:46:03;15.50;;;7.80;;
22030;SDS011;11179;52.106;21.024;2022-09-09T04:48:29;15.87;;;7.90;;
22030;SDS011;11179;52.106;21.024;2022-09-09T04:51:05;13.87;;;7.67;;
22030;SDS011;11179;52.106;21.024;2022-09-09T04:53:34;11.90;;;6.13;;
22030;SDS011;11179;52.106;21.024;2022-09-09T04:58:38;14.87;;;7.53;;
22030;SDS011;11179;52.106;21.024;2022-09-09T05:01:10;15.73;;;7.23;;
22030;SDS011;11179;52.106;21.024;2022-09-09T05:03:42;15.20;;;8.13;;
22030;SDS011;11179;52.106;21.024;2022-09-09T05:06:09;14.97;;;7.50;;
22030;SDS011;11179;52.106;21.024;2022-09-09T05:08:36;11.30;;;5.77;;
22030;SDS011;11179;52.106;21.024;2022-09-09T05:11:03;13.10;;;6.60;;
22030;SDS011;11179;52.106;21.024;2022-09-09T05:13:42;11.60;;;7.20;;
22030;SDS011;11179;52.106;21.024;2022-09-09T05:16:07;13.63;;;6.50;;
22030;SDS011;11179;52.106;21.024;2022-09-09T05:18:35;14.50;;;6.10;;
22030;SDS011;11179;52.106;21.024;2022-09-09T05:21:01;11.60;;;6.77;;
22030;SDS011;11179;52.106;21.024;2022-09-09T05:23:27;14.07;;;7.20;;
22030;SDS011;11179;52.106;21.024;2022-09-09T05:25:56;11.93;;;6.70;;
22030;SDS011;11179;52.106;21.024;2022-09-09T05:28:23;11.73;;;6.73;;
22030;SDS011;11179;52.106;21.024;2022-09-09T05:30:59;18.30;;;7.87;;
22030;SDS011;11179;52.106;21.024;2022-09-09T05:33:29;13.20;;;7.07;;
22030;SDS011;11179;52.106;21.024;2022-09-09T05:35:58;14.50;;;7.20;;
22030;SDS011;11179;52.106;21.024;2022-09-09T05:38:25;16.30;;;7.87;;
22030;SDS011;11179;52.106;21.024;2022-09-09T05:40:51;13.40;;;6.93;;
22030;SDS011;11179;52.106;21.024;2022-09-09T05:43:18;17.27;;;7.93;;
22030;SDS011;11179;52.106;21.024;2022-09-09T05:45:45;12.27;;;6.77;;
22030;SDS011;11179;52.106;21.024;2022-09-09T05:48:12;14.80;;;7.13;;
22030;SDS011;11179;52.106;21.024;2022-09-09T05:50:40;12.67;;;6.70;;
22030;SDS011;11179;52.106;21.024;2022-09-09T05:53:05;13.90;;;7.47;;
22030;SDS011;11179;52.106;21.024;2022-09-09T05:55:31;14.70;;;7.80;;
22030;SDS011;11179;52.106;21.024;2022-09-09T05:57:56;14.13;;;7.00;;
22030;SDS011;11179;52.106;21.024;2022-09-09T06:00:21;13.30;;;7.03;;
22030;SDS011;11179;52.106;21.024;2022-09-09T06:02:51;13.73;;;7.10;;
22030;SDS011;11179;52.106;21.024;2022-09-09T06:05:17;10.93;;;6.77;;
22030;SDS011;11179;52.106;21.024;2022-09-09T06:07:43;13.63;;;6.80;;
22030;SDS011;11179;52.106;21.024;2022-09-09T06:10:09;18.17;;;7.67;;
22030;SDS011;11179;52.106;21.024;2022-09-09T06:12:35;13.70;;;7.07;;
22030;SDS011;11179;52.106;21.024;2022-09-09T06:15:00;12.43;;;6.70;;
22030;SDS011;11179;52.106;21.024;2022-09-09T06:17:26;11.43;;;6.40;;
22030;SDS011;11179;52.106;21.024;2022-09-09T06:19:51;12.50;;;6.93;;
22030;SDS011;11179;52.106;21.024;2022-09-09T06:22:17;13.60;;;7.17;;
22030;SDS011;11179;52.106;21.024;2022-09-09T06:24:42;13.03;;;7.13;;
22030;SDS011;11179;52.106;21.024;2022-09-09T06:27:08;13.57;;;6.97;;
22030;SDS011;11179;52.106;21.024;2022-09-09T06:29:34;13.17;;;7.20;;
22030;SDS011;11179;52.106;21.024;2022-09-09T06:31:59;15.77;;;7.30;;
22030;SDS011;11179;52.106;21.024;2022-09-09T06:34:25;15.90;;;7.33;;
22030;SDS011;11179;52.106;21.024;2022-09-09T06:36:50;11.30;;;7.03;;
22030;SDS011;11179;52.106;21.024;2022-09-09T06:39:16;17.10;;;8.53;;
22030;SDS011;11179;52.106;21.024;2022-09-09T06:41:42;15.53;;;7.97;;
22030;SDS011;11179;52.106;21.024;2022-09-09T06:44:07;15.70;;;7.57;;
22030;SDS011;11179;52.106;21.024;2022-09-09T06:46:33;13.93;;;8.33;;
22030;SDS011;11179;52.106;21.024;2022-09-09T06:49:00;20.60;;;8.90;;
22030;SDS011;11179;52.106;21.024;2022-09-09T06:51:27;16.50;;;8.30;;
22030;SDS011;11179;52.106;21.024;2022-09-09T06:53:57;18.00;;;9.00;;
22030;SDS011;11179;52.106;21.024;2022-09-09T06:56:25;15.50;;;9.47;;
22030;SDS011;11179;52.106;21.024;2022-09-09T06:58:53;17.13;;;9.37;;
22030;SDS011;11179;52.106;21.024;2022-09-09T07:01:23;31.53;;;9.10;;
22030;SDS011;11179;52.106;21.024;2022-09-09T07:03:54;21.33;;;9.50;;
22030;SDS011;11179;52.106;21.024;2022-09-09T07:06:22;20.47;;;10.40;;
22030;SDS011;11179;52.106;21.024;2022-09-09T07:08:50;19.63;;;10.43;;
22030;SDS011;11179;52.106;21.024;2022-09-09T07:11:17;14.13;;;8.70;;
22030;SDS011;11179;52.106;21.024;2022-09-09T07:13:43;18.17;;;8.93;;
22030;SDS011;11179;52.106;21.024;2022-09-09T07:16:10;17.23;;;9.53;;
22030;SDS011;11179;52.106;21.024;2022-09-09T07:18:37;13.43;;;8.73;;
22030;SDS011;11179;52.106;21.024;2022-09-09T07:21:03;17.83;;;9.13;;
22030;SDS011;11179;52.106;21.024;2022-09-09T07:23:29;18.93;;;10.00;;
22030;SDS011;11179;52.106;21.024;2022-09-09T07:25:56;18.10;;;9.70;;
22030;SDS011;11179;52.106;21.024;2022-09-09T07:28:23;20.50;;;10.40;;
22030;SDS011;11179;52.106;21.024;2022-09-09T07:30:55;21.43;;;11.77;;
22030;SDS011;11179;52.106;21.024;2022-09-09T07:33:22;20.20;;;11.17;;
22030;SDS011;11179;52.106;21.024;2022-09-09T07:35:48;18.07;;;10.40;;
22030;SDS011;11179;52.106;21.024;2022-09-09T07:38:14;21.10;;;11.63;;
22030;SDS011;11179;52.106;21.024;2022-09-09T07:40:40;22.23;;;10.80;;
22030;SDS011;11179;52.106;21.024;2022-09-09T07:43:05;20.30;;;10.60;;
22030;SDS011;11179;52.106;21.024;2022-09-09T07:45:31;22.00;;;9.50;;
22030;SDS011;11179;52.106;21.024;2022-09-09T07:47:58;19.93;;;11.43;;
22030;SDS011;11179;52.106;21.024;2022-09-09T07:50:23;23.80;;;12.17;;
22030;SDS011;11179;52.106;21.024;2022-09-09T07:52:50;22.53;;;11.93;;
22030;SDS011;11179;52.106;21.024;2022-09-09T07:55:16;21.23;;;11.20;;
22030;SDS011;11179;52.106;21.024;2022-09-09T07:57:42;21.33;;;11.43;;
22030;SDS011;11179;52.106;21.024;2022-09-09T08:00:08;19.90;;;11.70;;
22030;SDS011;11179;52.106;21.024;2022-09-09T08:02:35;22.23;;;11.37;;
22030;SDS011;11179;52.106;21.024;2022-09-09T08:05:00;22.33;;;11.93;;
22030;SDS011;11179;52.106;21.024;2022-09-09T08:07:26;23.03;;;11.50;;
22030;SDS011;11179;52.106;21.024;2022-09-09T08:09:52;18.60;;;11.17;;
22030;SDS011;11179;52.106;21.024;2022-09-09T08:12:19;24.10;;;12.13;;
22030;SDS011;11179;52.106;21.024;2022-09-09T08:14:44;25.23;;;12.60;;
22030;SDS011;11179;52.106;21.024;2022-09-09T08:17:10;19.77;;;11.80;;
22030;SDS011;11179;52.106;21.024;2022-09-09T08:19:35;22.80;;;12.67;;
22030;SDS011;11179;52.106;21.024;2022-09-09T08:22:01;31.23;;;12.83;;
22030;SDS011;11179;52.106;21.024;2022-09-09T08:24:27;22.00;;;12.47;;
22030;SDS011;11179;52.106;21.024;2022-09-09T08:26:53;27.50;;;12.90;;
22030;SDS011;11179;52.106;21.024;2022-09-09T08:29:18;25.73;;;11.93;;
22030;SDS011;11179;52.106;21.024;2022-09-09T08:31:45;22.00;;;11.57;;
22030;SDS011;11179;52.106;21.024;2022-09-09T08:34:12;22.27;;;12.60;;
22030;SDS011;11179;52.106;21.024;2022-09-09T08:36:40;23.30;;;12.17;;
22030;SDS011;11179;52.106;21.024;2022-09-09T08:39:08;20.60;;;12.50;;
22030;SDS011;11179;52.106;21.024;2022-09-09T08:47:08;25.23;;;14.57;;
22030;SDS011;11179;52.106;21.024;2022-09-09T08:50:45;31.80;;;15.03;;
22030;SDS011;11179;52.106;21.024;2022-09-09T08:58:20;31.70;;;15.53;;
22030;SDS011;11179;52.106;21.024;2022-09-09T09:11:37;30.33;;;14.33;;
22030;SDS011;11179;52.106;21.024;2022-09-09T09:14:37;23.83;;;13.63;;
22030;SDS011;11179;52.106;21.024;2022-09-09T09:19:47;26.70;;;13.73;;
22030;SDS011;11179;52.106;21.024;2022-09-09T09:30:34;30.70;;;16.20;;
22030;SDS011;11179;52.106;21.024;2022-09-09T09:36:13;34.60;;;18.37;;
22030;SDS011;11179;52.106;21.024;2022-09-09T09:39:00;34.80;;;17.70;;
22030;SDS011;11179;52.106;21.024;2022-09-09T09:41:31;39.00;;;18.83;;
22030;SDS011;11179;52.106;21.024;2022-09-09T09:43:59;33.90;;;17.17;;
22030;SDS011;11179;52.106;21.024;2022-09-09T09:46:25;33.43;;;17.57;;
22030;SDS011;11179;52.106;21.024;2022-09-09T09:49:24;38.13;;;18.23;;
22030;SDS011;11179;52.106;21.024;2022-09-09T09:51:43;41.10;;;18.50;;
22030;SDS011;11179;52.106;21.024;2022-09-09T09:56:48;40.63;;;18.13;;
22030;SDS011;11179;52.106;21.024;2022-09-09T09:59:21;33.60;;;16.90;;
22030;SDS011;11179;52.106;21.024;2022-09-09T10:01:47;35.70;;;17.90;;
22030;SDS011;11179;52.106;21.024;2022-09-09T10:04:14;35.47;;;17.40;;
22030;SDS011;11179;52.106;21.024;2022-09-09T10:06:44;39.60;;;18.07;;
22030;SDS011;11179;52.106;21.024;2022-09-09T10:22:35;36.80;;;20.00;;
22030;SDS011;11179;52.106;21.024;2022-09-09T10:38:42;49.13;;;22.13;;
22030;SDS011;11179;52.106;21.024;2022-09-09T10:43:46;44.97;;;21.93;;
22030;SDS011;11179;52.106;21.024;2022-09-09T10:57:00;50.43;;;22.50;;
22030;SDS011;11179;52.106;21.024;2022-09-09T10:59:53;52.50;;;24.23;;
22030;SDS011;11179;52.106;21.024;2022-09-09T11:02:26;47.27;;;22.27;;
22030;SDS011;11179;52.106;21.024;2022-09-09T11:04:54;48.77;;;22.30;;
22030;SDS011;11179;52.106;21.024;2022-09-09T11:07:32;51.77;;;23.50;;
22030;SDS011;11179;52.106;21.024;2022-09-09T11:10:15;49.33;;;24.43;;
22030;SDS011;11179;52.106;21.024;2022-09-09T11:12:46;49.07;;;23.83;;
22030;SDS011;11179;52.106;21.024;2022-09-09T11:15:17;40.93;;;21.20;;
22030;SDS011;11179;52.106;21.024;2022-09-09T11:17:55;52.10;;;24.23;;
22030;SDS011;11179;52.106;21.024;2022-09-09T11:20:23;55.40;;;25.83;;
22030;SDS011;11179;52.106;21.024;2022-09-09T11:25:33;52.10;;;24.67;;
22030;SDS011;11179;52.106;21.024;2022-09-09T11:36:46;54.23;;;24.63;;
22030;SDS011;11179;52.106;21.024;2022-09-09T11:42:07;57.93;;;24.97;;
22030;SDS011;11179;52.106;21.024;2022-09-09T11:44:40;59.90;;;26.20;;
22030;SDS011;11179;52.106;21.024;2022-09-09T11:47:20;67.13;;;26.47;;
22030;SDS011;11179;52.106;21.024;2022-09-09T11:49:51;56.43;;;24.50;;
22030;SDS011;11179;52.106;21.024;2022-09-09T11:52:34;64.67;;;28.40;;
22030;SDS011;11179;52.106;21.024;2022-09-09T11:55:09;56.57;;;24.37;;
22030;SDS011;11179;52.106;21.024;2022-09-09T11:57:37;54.50;;;24.37;;
22030;SDS011;11179;52.106;21.024;2022-09-09T12:00:03;64.73;;;25.40;;
22030;SDS011;11179;52.106;21.024;2022-09-09T12:02:30;62.27;;;24.90;;
22030;SDS011;11179;52.106;21.024;2022-09-09T12:10:26;59.27;;;26.90;;
22030;SDS011;11179;52.106;21.024;2022-09-09T12:13:17;58.13;;;26.10;;
22030;SDS011;11179;52.106;21.024;2022-09-09T12:15:54;65.20;;;26.83;;
22030;SDS011;11179;52.106;21.024;2022-09-09T12:21:15;66.07;;;30.33;;
22030;SDS011;11179;52.106;21.024;2022-09-09T12:24:06;63.67;;;26.60;;
22030;SDS011;11179;52.106;21.024;2022-09-09T12:26:47;64.87;;;27.70;;
22030;SDS011;11179;52.106;21.024;2022-09-09T12:29:26;72.70;;;30.07;;
22030;SDS011;11179;52.106;21.024;2022-09-09T12:32:32;59.90;;;26.30;;
22030;SDS011;11179;52.106;21.024;2022-09-09T12:34:52;61.07;;;26.70;;
22030;SDS011;11179;52.106;21.024;2022-09-09T12:40:06;54.50;;;25.70;;
22030;SDS011;11179;52.106;21.024;2022-09-09T12:42:39;68.20;;;28.83;;
22030;SDS011;11179;52.106;21.024;2022-09-09T12:45:14;63.50;;;26.63;;
22030;SDS011;11179;52.106;21.024;2022-09-09T12:50:31;61.77;;;26.90;;
22030;SDS011;11179;52.106;21.024;2022-09-09T12:53:01;58.90;;;25.70;;
22030;SDS011;11179;52.106;21.024;2022-09-09T12:55:30;65.53;;;27.50;;
22030;SDS011;11179;52.106;21.024;2022-09-09T12:57:58;63.10;;;26.77;;
22030;SDS011;11179;52.106;21.024;2022-09-09T13:00:26;58.13;;;25.70;;
22030;SDS011;11179;52.106;21.024;2022-09-09T13:02:56;58.33;;;25.43;;
22030;SDS011;11179;52.106;21.024;2022-09-09T13:05:27;68.47;;;29.00;;
22030;SDS011;11179;52.106;21.024;2022-09-09T13:08:05;66.90;;;26.43;;
22030;SDS011;11179;52.106;21.024;2022-09-09T13:10:46;64.33;;;26.37;;
22030;SDS011;11179;52.106;21.024;2022-09-09T13:13:19;67.73;;;26.90;;
22030;SDS011;11179;52.106;21.024;2022-09-09T13:15:49;54.77;;;23.90;;
22030;SDS011;11179;52.106;21.024;2022-09-09T13:18:16;74.50;;;27.37;;
22030;SDS011;11179;52.106;21.024;2022-09-09T13:20:47;63.37;;;26.30;;
22030;SDS011;11179;52.106;21.024;2022-09-09T13:23:14;59.70;;;24.60;;
22030;SDS011;11179;52.106;21.024;2022-09-09T13:25:42;60.20;;;26.30;;
22030;SDS011;11179;52.106;21.024;2022-09-09T13:28:20;62.77;;;25.17;;
22030;SDS011;11179;52.106;21.024;2022-09-09T13:30:57;57.50;;;23.77;;
22030;SDS011;11179;52.106;21.024;2022-09-09T13:33:35;61.67;;;25.03;;
22030;SDS011;11179;52.106;21.024;2022-09-09T13:36:06;57.13;;;24.07;;
22030;SDS011;11179;52.106;21.024;2022-09-09T13:41:19;56.77;;;25.43;;
22030;SDS011;11179;52.106;21.024;2022-09-09T13:43:46;63.50;;;26.10;;
22030;SDS011;11179;52.106;21.024;2022-09-09T13:48:59;65.83;;;25.97;;
22030;SDS011;11179;52.106;21.024;2022-09-09T13:51:32;53.87;;;24.63;;
22030;SDS011;11179;52.106;21.024;2022-09-09T13:54:00;54.10;;;23.23;;
22030;SDS011;11179;52.106;21.024;2022-09-09T13:56:26;57.17;;;25.20;;
22030;SDS011;11179;52.106;21.024;2022-09-09T13:58:52;63.50;;;27.17;;
22030;SDS011;11179;52.106;21.024;2022-09-09T14:01:17;56.10;;;24.10;;
22030;SDS011;11179;52.106;21.024;2022-09-09T14:03:42;55.57;;;25.27;;
22030;SDS011;11179;52.106;21.024;2022-09-09T14:06:08;64.60;;;25.50;;
22030;SDS011;11179;52.106;21.024;2022-09-09T14:08:35;59.33;;;26.30;;
22030;SDS011;11179;52.106;21.024;2022-09-09T14:11:02;50.03;;;23.67;;
22030;SDS011;11179;52.106;21.024;2022-09-09T14:13:28;68.20;;;30.00;;
22030;SDS011;11179;52.106;21.024;2022-09-09T14:15:54;45.57;;;23.63;;
22030;SDS011;11179;52.106;21.024;2022-09-09T14:18:19;57.13;;;25.60;;
22030;SDS011;11179;52.106;21.024;2022-09-09T14:20:47;54.13;;;24.33;;
22030;SDS011;11179;52.106;21.024;2022-09-09T14:23:13;52.17;;;23.80;;
22030;SDS011;11179;52.106;21.024;2022-09-09T14:25:42;49.37;;;23.30;;
22030;SDS011;11179;52.106;21.024;2022-09-09T14:28:09;51.87;;;23.77;;
22030;SDS011;11179;52.106;21.024;2022-09-09T14:30:36;63.10;;;26.97;;
22030;SDS011;11179;52.106;21.024;2022-09-09T14:33:02;63.63;;;26.50;;
22030;SDS011;11179;52.106;21.024;2022-09-09T14:35:28;52.67;;;23.87;;
22030;SDS011;11179;52.106;21.024;2022-09-09T14:37:53;63.10;;;26.07;;
22030;SDS011;11179;52.106;21.024;2022-09-09T14:40:20;53.93;;;24.90;;
22030;SDS011;11179;52.106;21.024;2022-09-09T14:42:45;53.40;;;24.63;;
22030;SDS011;11179;52.106;21.024;2022-09-09T14:45:10;76.57;;;23.83;;
22030;SDS011;11179;52.106;21.024;2022-09-09T14:47:36;48.57;;;23.53;;
22030;SDS011;11179;52.106;21.024;2022-09-09T14:50:03;48.47;;;23.10;;
22030;SDS011;11179;52.106;21.024;2022-09-09T14:52:30;64.67;;;25.47;;
22030;SDS011;11179;52.106;21.024;2022-09-09T14:54:55;53.77;;;24.23;;
22030;SDS011;11179;52.106;21.024;2022-09-09T14:57:21;49.77;;;22.97;;
22030;SDS011;11179;52.106;21.024;2022-09-09T14:59:47;55.67;;;24.80;;
22030;SDS011;11179;52.106;21.024;2022-09-09T15:02:14;49.43;;;23.93;;
22030;SDS011;11179;52.106;21.024;2022-09-09T15:04:39;57.17;;;23.80;;
22030;SDS011;11179;52.106;21.024;2022-09-09T15:07:04;60.43;;;26.80;;
22030;SDS011;11179;52.106;21.024;2022-09-09T15:09:30;61.23;;;24.10;;
22030;SDS011;11179;52.106;21.024;2022-09-09T15:11:55;54.97;;;24.40;;
22030;SDS011;11179;52.106;21.024;2022-09-09T15:14:20;55.20;;;25.17;;
22030;SDS011;11179;52.106;21.024;2022-09-09T15:16:46;58.13;;;25.20;;
22030;SDS011;11179;52.106;21.024;2022-09-09T15:19:11;50.87;;;23.37;;
22030;SDS011;11179;52.106;21.024;2022-09-09T15:21:37;52.20;;;23.60;;
22030;SDS011;11179;52.106;21.024;2022-09-09T15:24:03;63.10;;;25.70;;
22030;SDS011;11179;52.106;21.024;2022-09-09T15:26:29;59.70;;;23.60;;
22030;SDS011;11179;52.106;21.024;2022-09-09T15:28:55;54.83;;;25.00;;
22030;SDS011;11179;52.106;21.024;2022-09-09T15:31:22;65.63;;;27.30;;
22030;SDS011;11179;52.106;21.024;2022-09-09T15:33:53;58.77;;;26.90;;
22030;SDS011;11179;52.106;21.024;2022-09-09T15:36:26;58.90;;;27.47;;
22030;SDS011;11179;52.106;21.024;2022-09-09T15:38:53;63.97;;;26.80;;
22030;SDS011;11179;52.106;21.024;2022-09-09T15:41:20;58.90;;;26.07;;
22030;SDS011;11179;52.106;21.024;2022-09-09T15:43:47;58.50;;;25.27;;
22030;SDS011;11179;52.106;21.024;2022-09-09T15:49:15;55.70;;;25.13;;
22030;SDS011;11179;52.106;21.024;2022-09-09T15:51:43;67.20;;;27.10;;
22030;SDS011;11179;52.106;21.024;2022-09-09T15:54:11;59.70;;;27.33;;
22030;SDS011;11179;52.106;21.024;2022-09-09T15:56:43;61.00;;;27.63;;
22030;SDS011;11179;52.106;21.024;2022-09-09T15:59:10;59.80;;;26.50;;
22030;SDS011;11179;52.106;21.024;2022-09-09T16:01:36;62.63;;;27.50;;
22030;SDS011;11179;52.106;21.024;2022-09-09T16:04:04;63.93;;;27.37;;
22030;SDS011;11179;52.106;21.024;2022-09-09T16:06:29;66.53;;;30.40;;
22030;SDS011;11179;52.106;21.024;2022-09-09T16:08:56;59.57;;;26.50;;
22030;SDS011;11179;52.106;21.024;2022-09-09T16:11:24;56.27;;;25.23;;
22030;SDS011;11179;52.106;21.024;2022-09-09T16:13:51;59.50;;;25.80;;
22030;SDS011;11179;52.106;21.024;2022-09-09T16:16:18;71.77;;;28.80;;
22030;SDS011;11179;52.106;21.024;2022-09-09T16:18:47;57.60;;;26.63;;
22030;SDS011;11179;52.106;21.024;2022-09-09T16:23:42;62.77;;;26.57;;
22030;SDS011;11179;52.106;21.024;2022-09-09T16:26:09;68.23;;;28.93;;
22030;SDS011;11179;52.106;21.024;2022-09-09T16:28:36;59.23;;;26.97;;
22030;SDS011;11179;52.106;21.024;2022-09-09T16:31:05;59.10;;;25.43;;
22030;SDS011;11179;52.106;21.024;2022-09-09T16:33:35;60.07;;;26.33;;
22030;SDS011;11179;52.106;21.024;2022-09-09T16:36:08;50.50;;;25.87;;
22030;SDS011;11179;52.106;21.024;2022-09-09T16:38:37;57.03;;;23.20;;
22030;SDS011;11179;52.106;21.024;2022-09-09T16:41:03;47.03;;;23.53;;
22030;SDS011;11179;52.106;21.024;2022-09-09T16:43:31;64.87;;;26.60;;
22030;SDS011;11179;52.106;21.024;2022-09-09T16:45:58;56.80;;;24.20;;
22030;SDS011;11179;52.106;21.024;2022-09-09T16:48:25;49.47;;;24.40;;
22030;SDS011;11179;52.106;21.024;2022-09-09T16:50:51;56.63;;;25.90;;
22030;SDS011;11179;52.106;21.024;2022-09-09T16:53:17;53.80;;;24.87;;
22030;SDS011;11179;52.106;21.024;2022-09-09T16:55:43;43.30;;;22.23;;
22030;SDS011;11179;52.106;21.024;2022-09-09T16:58:12;47.83;;;23.07;;
22030;SDS011;11179;52.106;21.024;2022-09-09T17:00:37;47.97;;;21.23;;
22030;SDS011;11179;52.106;21.024;2022-09-09T17:03:03;55.37;;;24.17;;
22030;SDS011;11179;52.106;21.024;2022-09-09T17:05:28;60.13;;;24.40;;
22030;SDS011;11179;52.106;21.024;2022-09-09T17:07:54;57.97;;;24.77;;
22030;SDS011;11179;52.106;21.024;2022-09-09T17:10:22;48.50;;;23.87;;